Time;durP1;ratioP1;P1;durP2;ratioP2;P2;SDS_P1;SDS_P2;PMS_P1;PMS_P2;Temp;Humidity;BMP_temperature;BMP_pressure;BME280_temperature;BME280_humidity;BME280_pressure;Samples;Min_cycle;Max_cycle;Signal;HPM_P1;HPM_P2
2022/12/20 00:02:01;;;;;;;20.30;9.75;;;;;;;;;;6091623;23;20491;-84
2022/12/20 00:04:26;;;;;;;22.17;10.45;;;;;;;;;;6067138;23;20173;-83
2022/12/20 00:06:52;;;;;;;21.33;9.57;;;;;;;;;;6090467;23;20022;-83
2022/12/20 00:09:19;;;;;;;22.35;9.73;;;;;;;;;;6091506;23;20018;-84
2022/12/20 00:11:44;;;;;;;18.40;9.27;;;;;;;;;;6066369;23;20024;-84
2022/12/20 00:14:09;;;;;;;21.05;9.45;;;;;;;;;;6091193;23;20246;-84
2022/12/20 00:16:36;;;;;;;21.27;9.90;;;;;;;;;;6066068;23;20470;-84
2022/12/20 00:19:03;;;;;;;22.08;10.60;;;;;;;;;;6091749;23;20390;-84
2022/12/20 00:21:30;;;;;;;18.85;9.88;;;;;;;;;;6066622;23;20016;-84
2022/12/20 00:23:55;;;;;;;18.85;8.25;;;;;;;;;;6067539;23;20088;-85
2022/12/20 00:26:24;;;;;;;19.60;9.00;;;;;;;;;;6090071;23;20017;-84
2022/12/20 00:28:49;;;;;;;19.75;10.13;;;;;;;;;;6067003;23;20073;-84
2022/12/20 00:31:16;;;;;;;21.58;9.77;;;;;;;;;;6090563;23;20014;-85
2022/12/20 00:33:45;;;;;;;20.02;9.77;;;;;;;;;;6090868;23;20022;-84
2022/12/20 00:36:11;;;;;;;17.25;8.50;;;;;;;;;;6066452;23;20030;-83
2022/12/20 00:38:36;;;;;;;21.83;10.20;;;;;;;;;;6091545;23;20355;-84
2022/12/20 00:41:02;;;;;;;17.38;8.30;;;;;;;;;;6067404;23;20097;-84
2022/12/20 00:43:30;;;;;;;16.48;8.90;;;;;;;;;;6116571;23;20354;-84
2022/12/20 00:45:56;;;;;;;18.20;9.38;;;;;;;;;;6066465;23;20048;-84
2022/12/20 00:48:22;;;;;;;18.73;9.27;;;;;;;;;;6067175;23;20010;-84
2022/12/20 00:50:47;;;;;;;19.02;9.70;;;;;;;;;;6090640;23;20021;-84
2022/12/20 00:53:13;;;;;;;21.08;9.57;;;;;;;;;;6067081;23;20025;-85
2022/12/20 00:55:45;;;;;;;19.88;9.25;;;;;;;;;;6090523;23;20097;-83
2022/12/20 00:58:11;;;;;;;21.30;9.40;;;;;;;;;;6067569;23;20016;-80
2022/12/20 01:00:37;;;;;;;17.42;8.50;;;;;;;;;;6066567;23;20470;-80
2022/12/20 01:03:02;;;;;;;17.55;9.05;;;;;;;;;;6067413;23;20021;-81
2022/12/20 01:05:28;;;;;;;18.23;9.30;;;;;;;;;;6114822;23;20041;-82
2022/12/20 01:07:53;;;;;;;17.85;9.02;;;;;;;;;;6067410;23;20022;-80
2022/12/20 01:10:18;;;;;;;15.38;8.45;;;;;;;;;;6065732;23;20025;-80
2022/12/20 01:12:44;;;;;;;15.02;8.23;;;;;;;;;;6091609;23;20010;-81
2022/12/20 01:15:10;;;;;;;17.13;8.73;;;;;;;;;;6067956;23;20077;-80
2022/12/20 01:17:36;;;;;;;16.77;8.38;;;;;;;;;;6092184;23;20037;-79
2022/12/20 01:20:02;;;;;;;16.35;8.35;;;;;;;;;;6069520;23;20017;-81
2022/12/20 01:22:27;;;;;;;16.27;8.40;;;;;;;;;;6067959;23;20477;-81
2022/12/20 01:24:53;;;;;;;15.48;8.23;;;;;;;;;;6068989;23;20096;-80
2022/12/20 01:27:18;;;;;;;15.63;8.02;;;;;;;;;;6092242;23;20010;-79
2022/12/20 01:29:43;;;;;;;15.90;8.70;;;;;;;;;;6069450;23;20014;-80
2022/12/20 01:32:09;;;;;;;16.13;8.07;;;;;;;;;;6068168;23;20061;-81
2022/12/20 01:34:34;;;;;;;15.10;7.85;;;;;;;;;;6069482;23;20338;-81
2022/12/20 01:36:59;;;;;;;16.75;7.88;;;;;;;;;;6068664;23;20025;-81
2022/12/20 01:39:25;;;;;;;15.23;8.05;;;;;;;;;;6068547;23;20315;-79
2022/12/20 01:41:50;;;;;;;16.17;8.23;;;;;;;;;;6092192;23;20018;-80
2022/12/20 01:44:15;;;;;;;17.52;8.43;;;;;;;;;;6068579;23;20010;-81
2022/12/20 01:46:41;;;;;;;14.80;7.47;;;;;;;;;;6091758;23;20021;-81
2022/12/20 01:49:20;;;;;;;15.85;8.52;;;;;;;;;;6117194;23;20354;-81
2022/12/20 01:51:50;;;;;;;16.25;8.02;;;;;;;;;;6092514;23;20026;-80
2022/12/20 01:54:21;;;;;;;17.60;8.20;;;;;;;;;;6068202;23;20463;-79
2022/12/20 01:57:01;;;;;;;17.08;8.48;;;;;;;;;;6067826;23;20022;-81
2022/12/20 01:59:30;;;;;;;16.13;8.23;;;;;;;;;;6068709;23;20017;-80
2022/12/20 02:01:57;;;;;;;17.17;8.50;;;;;;;;;;6091911;23;20025;-80
2022/12/20 02:04:23;;;;;;;16.43;8.40;;;;;;;;;;6068072;23;20782;-80
2022/12/20 02:06:48;;;;;;;14.73;7.95;;;;;;;;;;6091445;23;20336;-80
2022/12/20 02:09:14;;;;;;;18.10;7.65;;;;;;;;;;6068558;23;20017;-81
2022/12/20 02:12:09;;;;;;;17.13;8.38;;;;;;;;;;6091787;23;20081;-79
2022/12/20 02:14:50;;;;;;;14.57;8.07;;;;;;;;;;6067879;23;20018;-80
2022/12/20 02:17:21;;;;;;;17.17;8.48;;;;;;;;;;6067650;23;20547;-80
2022/12/20 02:20:11;;;;;;;16.30;8.23;;;;;;;;;;6092500;23;20073;-80
2022/12/20 02:23:08;;;;;;;16.45;7.60;;;;;;;;;;6091594;23;20018;-80
2022/12/20 02:25:41;;;;;;;15.77;7.53;;;;;;;;;;6116277;23;20456;-80
2022/12/20 02:28:23;;;;;;;17.10;8.38;;;;;;;;;;6092096;23;20101;-79
2022/12/20 02:30:51;;;;;;;17.90;8.95;;;;;;;;;;6091910;23;20022;-79
2022/12/20 02:33:18;;;;;;;15.63;8.82;;;;;;;;;;6068388;23;20477;-80
2022/12/20 02:35:43;;;;;;;13.77;7.32;;;;;;;;;;6067873;23;20028;-80
2022/12/20 02:38:30;;;;;;;14.90;7.90;;;;;;;;;;6068555;23;20380;-80
2022/12/20 02:41:09;;;;;;;15.33;7.60;;;;;;;;;;6091877;23;20014;-79
2022/12/20 02:46:23;;;;;;;14.75;7.75;;;;;;;;;;6094939;23;20101;-79
2022/12/20 02:48:50;;;;;;;17.38;8.05;;;;;;;;;;6092197;23;20113;-79
2022/12/20 02:51:17;;;;;;;15.90;8.48;;;;;;;;;;6067843;23;20029;-78
2022/12/20 02:53:43;;;;;;;14.85;8.07;;;;;;;;;;6068256;23;20485;-78
2022/12/20 02:56:31;;;;;;;12.82;7.35;;;;;;;;;;6091403;23;20021;-79
2022/12/20 02:59:20;;;;;;;18.13;8.25;;;;;;;;;;6092286;23;20037;-80
2022/12/20 03:01:51;;;;;;;15.00;7.55;;;;;;;;;;6103817;23;20108;-80
2022/12/20 03:04:19;;;;;;;14.52;7.20;;;;;;;;;;6067254;23;20026;-80
2022/12/20 03:07:05;;;;;;;15.38;7.35;;;;;;;;;;6067578;23;20053;-79
2022/12/20 03:09:32;;;;;;;14.13;7.82;;;;;;;;;;6092428;23;20018;-80
2022/12/20 03:11:58;;;;;;;15.20;7.82;;;;;;;;;;6067510;23;20337;-80
2022/12/20 03:14:25;;;;;;;12.35;7.25;;;;;;;;;;6092403;23;20006;-80
2022/12/20 03:16:50;;;;;;;15.65;8.13;;;;;;;;;;6067538;23;20018;-79
2022/12/20 03:19:16;;;;;;;13.75;7.30;;;;;;;;;;6092308;23;20018;-80
2022/12/20 03:21:41;;;;;;;14.23;7.47;;;;;;;;;;6067062;23;20014;-80
2022/12/20 03:24:10;;;;;;;14.32;8.07;;;;;;;;;;6067910;23;20025;-79
2022/12/20 03:26:36;;;;;;;15.10;7.20;;;;;;;;;;6066404;23;20081;-79
2022/12/20 03:29:02;;;;;;;13.90;7.38;;;;;;;;;;6093125;23;20018;-79
2022/12/20 03:31:28;;;;;;;17.05;7.35;;;;;;;;;;6067332;23;20020;-79
2022/12/20 03:33:54;;;;;;;16.20;7.65;;;;;;;;;;6067843;23;20382;-79
2022/12/20 03:36:22;;;;;;;13.82;6.88;;;;;;;;;;6066653;23;20450;-80
2022/12/20 03:38:48;;;;;;;13.48;7.55;;;;;;;;;;6092024;23;20077;-80
2022/12/20 03:41:14;;;;;;;14.55;7.18;;;;;;;;;;6091183;23;20465;-79
2022/12/20 03:43:39;;;;;;;12.55;7.07;;;;;;;;;;6116307;23;20024;-81
2022/12/20 03:46:05;;;;;;;13.13;7.28;;;;;;;;;;6066877;23;20018;-82
2022/12/20 03:48:30;;;;;;;13.70;7.53;;;;;;;;;;6092960;23;20025;-79
2022/12/20 03:50:55;;;;;;;13.30;7.10;;;;;;;;;;6115325;23;20024;-80
2022/12/20 03:53:21;;;;;;;13.38;6.85;;;;;;;;;;6067951;23;20010;-80
2022/12/20 03:55:46;;;;;;;14.20;6.95;;;;;;;;;;6066645;23;20147;-79
2022/12/20 03:58:11;;;;;;;13.38;7.00;;;;;;;;;;6068377;23;20069;-79
2022/12/20 04:00:37;;;;;;;13.70;7.57;;;;;;;;;;6091042;23;20025;-79
2022/12/20 04:03:02;;;;;;;16.45;8.57;;;;;;;;;;6068401;23;20094;-79
2022/12/20 04:05:27;;;;;;;14.68;7.40;;;;;;;;;;6090612;23;20104;-79
2022/12/20 04:07:55;;;;;;;13.70;6.85;;;;;;;;;;6068229;23;20053;-79
2022/12/20 04:10:20;;;;;;;13.30;7.07;;;;;;;;;;6091391;23;20009;-79
2022/12/20 04:12:46;;;;;;;15.35;7.32;;;;;;;;;;6068324;23;20398;-79
2022/12/20 04:15:11;;;;;;;13.70;6.97;;;;;;;;;;6067395;23;20029;-78
2022/12/20 04:17:36;;;;;;;14.40;7.13;;;;;;;;;;6091596;23;20045;-79
2022/12/20 04:20:17;;;;;;;15.52;7.18;;;;;;;;;;6068684;23;20062;-79
2022/12/20 04:22:45;;;;;;;12.95;6.80;;;;;;;;;;6070535;23;20021;-80
2022/12/20 04:25:10;;;;;;;12.70;6.97;;;;;;;;;;6090765;23;20025;-80
2022/12/20 04:27:35;;;;;;;14.70;7.63;;;;;;;;;;6067509;23;20017;-80
2022/12/20 04:30:01;;;;;;;13.75;6.88;;;;;;;;;;6092442;23;20468;-79
2022/12/20 04:32:26;;;;;;;14.27;7.18;;;;;;;;;;6091236;23;20109;-79
2022/12/20 04:34:52;;;;;;;15.63;7.00;;;;;;;;;;6066365;23;20018;-79
2022/12/20 04:37:17;;;;;;;13.50;7.35;;;;;;;;;;6066865;23;20482;-79
2022/12/20 04:39:42;;;;;;;16.30;7.78;;;;;;;;;;6091519;23;20088;-79
2022/12/20 04:42:08;;;;;;;14.68;7.28;;;;;;;;;;6066740;23;20022;-79
2022/12/20 04:44:33;;;;;;;14.55;7.40;;;;;;;;;;6068078;23;20506;-79
2022/12/20 04:46:58;;;;;;;14.88;7.10;;;;;;;;;;6091060;23;20084;-79
2022/12/20 04:49:24;;;;;;;14.05;7.18;;;;;;;;;;6068012;23;20521;-79
2022/12/20 04:51:49;;;;;;;14.18;6.88;;;;;;;;;;6068369;23;20029;-79
2022/12/20 04:54:15;;;;;;;12.38;6.43;;;;;;;;;;6118110;23;20088;-79
2022/12/20 04:56:40;;;;;;;14.68;7.28;;;;;;;;;;6092677;23;20022;-79
2022/12/20 04:59:05;;;;;;;13.98;7.15;;;;;;;;;;6093327;23;20726;-79
2022/12/20 05:01:31;;;;;;;13.18;7.47;;;;;;;;;;6069454;23;20029;-79
2022/12/20 05:03:56;;;;;;;13.63;7.55;;;;;;;;;;6069351;23;20005;-79
2022/12/20 05:06:21;;;;;;;17.80;7.68;;;;;;;;;;6068485;23;20390;-79
2022/12/20 05:08:47;;;;;;;13.18;7.55;;;;;;;;;;6068889;23;20067;-80
2022/12/20 05:11:13;;;;;;;14.75;7.45;;;;;;;;;;6092111;23;20014;-79
2022/12/20 05:13:38;;;;;;;13.02;7.03;;;;;;;;;;6069568;23;20017;-78
2022/12/20 05:16:04;;;;;;;15.10;6.70;;;;;;;;;;6069236;23;20346;-80
2022/12/20 05:18:30;;;;;;;15.40;7.40;;;;;;;;;;6092929;23;20041;-79
2022/12/20 05:26:30;;;;;;;16.08;8.23;;;;;;;;;;6096275;23;20021;-78
2022/12/20 05:28:55;;;;;;;13.82;7.22;;;;;;;;;;6093270;23;20090;-78
2022/12/20 05:31:21;;;;;;;12.93;7.65;;;;;;;;;;6068205;23;20076;-80
2022/12/20 05:33:46;;;;;;;13.75;7.53;;;;;;;;;;6093423;23;20461;-79
2022/12/20 05:36:14;;;;;;;13.27;7.22;;;;;;;;;;6092552;23;20446;-79
2022/12/20 05:38:39;;;;;;;13.65;7.22;;;;;;;;;;6068960;23;20049;-80
2022/12/20 05:41:05;;;;;;;14.85;7.35;;;;;;;;;;6068074;23;20781;-82
2022/12/20 05:43:31;;;;;;;15.75;7.95;;;;;;;;;;6069836;23;20010;-78
2022/12/20 05:45:56;;;;;;;13.30;7.20;;;;;;;;;;6067720;23;20331;-79
2022/12/20 05:48:22;;;;;;;13.90;7.13;;;;;;;;;;6093493;23;20025;-78
2022/12/20 05:50:47;;;;;;;14.23;6.90;;;;;;;;;;6067279;23;20443;-79
2022/12/20 05:53:14;;;;;;;14.82;7.68;;;;;;;;;;6069027;23;20438;-78
2022/12/20 05:56:00;;;;;;;14.00;7.47;;;;;;;;;;6067107;23;20470;-79
2022/12/20 05:58:25;;;;;;;15.77;7.53;;;;;;;;;;6069090;23;20021;-81
2022/12/20 06:00:51;;;;;;;14.20;7.13;;;;;;;;;;6091060;23;20010;-79
2022/12/20 06:03:19;;;;;;;15.45;7.57;;;;;;;;;;6092369;23;20459;-79
2022/12/20 06:05:45;;;;;;;16.95;7.90;;;;;;;;;;6067442;23;20033;-79
2022/12/20 06:08:11;;;;;;;12.43;6.43;;;;;;;;;;6067784;23;20061;-79
2022/12/20 06:10:36;;;;;;;15.60;8.23;;;;;;;;;;6067520;23;20781;-80
2022/12/20 06:13:02;;;;;;;13.45;7.72;;;;;;;;;;6069309;23;20006;-80
2022/12/20 06:15:28;;;;;;;14.50;8.02;;;;;;;;;;6068048;23;20454;-79
2022/12/20 06:17:54;;;;;;;14.10;7.47;;;;;;;;;;6068677;23;20018;-81
2022/12/20 06:20:19;;;;;;;15.43;7.93;;;;;;;;;;6067910;23;20081;-79
2022/12/20 06:23:06;;;;;;;16.33;8.02;;;;;;;;;;6092529;23;20097;-80
2022/12/20 06:25:31;;;;;;;16.27;8.18;;;;;;;;;;5976298;23;20058;-79
2022/12/20 06:27:57;;;;;;;15.38;7.72;;;;;;;;;;5977153;23;20024;-81
2022/12/20 06:30:22;;;;;;;18.33;8.00;;;;;;;;;;5976506;23;20066;-80
2022/12/20 06:32:48;;;;;;;14.90;7.97;;;;;;;;;;5952853;23;20115;-81
2022/12/20 06:35:13;;;;;;;14.02;8.43;;;;;;;;;;5975784;23;20156;-81
2022/12/20 06:37:39;;;;;;;16.95;8.20;;;;;;;;;;5976582;23;20433;-81
2022/12/20 06:40:09;;;;;;;15.38;7.90;;;;;;;;;;5954096;23;20047;-81
2022/12/20 06:42:35;;;;;;;16.25;7.93;;;;;;;;;;5999288;23;20047;-82
2022/12/20 06:45:01;;;;;;;16.27;8.48;;;;;;;;;;5976324;23;20019;-81
2022/12/20 06:47:26;;;;;;;14.43;8.10;;;;;;;;;;5975049;23;20927;-81
2022/12/20 06:49:52;;;;;;;17.27;8.63;;;;;;;;;;5953322;23;20023;-80
2022/12/20 06:52:17;;;;;;;14.93;8.07;;;;;;;;;;5952181;23;20575;-81
2022/12/20 06:54:43;;;;;;;17.73;8.52;;;;;;;;;;5976257;23;20020;-82
2022/12/20 06:57:08;;;;;;;17.40;8.38;;;;;;;;;;5952941;23;20019;-81
2022/12/20 06:59:37;;;;;;;16.90;9.10;;;;;;;;;;5977241;23;20030;-81
2022/12/20 07:02:02;;;;;;;16.98;9.18;;;;;;;;;;5987433;23;20454;-81
2022/12/20 07:04:28;;;;;;;19.52;9.82;;;;;;;;;;6068550;23;20024;-81
2022/12/20 07:06:53;;;;;;;17.77;9.38;;;;;;;;;;6091656;23;20105;-81
2022/12/20 07:09:18;;;;;;;17.20;9.05;;;;;;;;;;6068150;23;20529;-81
2022/12/20 07:11:44;;;;;;;18.65;9.13;;;;;;;;;;6066881;23;20056;-81
2022/12/20 07:14:09;;;;;;;16.88;8.80;;;;;;;;;;6067806;23;20458;-82
2022/12/20 07:16:35;;;;;;;17.85;9.15;;;;;;;;;;6067431;23;20018;-80
2022/12/20 07:19:00;;;;;;;16.77;8.75;;;;;;;;;;6091524;23;20469;-81
2022/12/20 07:21:26;;;;;;;17.52;8.65;;;;;;;;;;6066851;23;20061;-81
2022/12/20 07:23:52;;;;;;;19.65;9.27;;;;;;;;;;6092290;23;20014;-81
2022/12/20 07:26:17;;;;;;;21.55;9.32;;;;;;;;;;6091048;23;20014;-80
2022/12/20 07:28:43;;;;;;;18.35;9.02;;;;;;;;;;6067976;23;20021;-81
2022/12/20 07:31:09;;;;;;;20.10;9.82;;;;;;;;;;6090793;23;20042;-81
2022/12/20 07:33:36;;;;;;;16.75;9.57;;;;;;;;;;6119056;23;20497;-81
2022/12/20 07:36:04;;;;;;;18.20;9.52;;;;;;;;;;6092006;23;20018;-83
2022/12/20 07:38:29;;;;;;;19.83;10.00;;;;;;;;;;6091067;23;20018;-80
2022/12/20 07:40:55;;;;;;;17.48;9.98;;;;;;;;;;6066521;23;21019;-81
2022/12/20 07:43:20;;;;;;;17.08;9.07;;;;;;;;;;6115249;23;20096;-82
2022/12/20 07:45:46;;;;;;;20.38;10.60;;;;;;;;;;6090079;23;20036;-82
2022/12/20 07:48:12;;;;;;;16.35;9.48;;;;;;;;;;6066484;23;20038;-83
2022/12/20 07:50:38;;;;;;;19.63;9.95;;;;;;;;;;6066990;23;20018;-82
2022/12/20 07:53:04;;;;;;;17.75;10.35;;;;;;;;;;6031682;23;20033;-82
2022/12/20 07:55:30;;;;;;;20.27;10.65;;;;;;;;;;6090404;23;20029;-81
2022/12/20 07:58:00;;;;;;;19.80;10.43;;;;;;;;;;6091084;23;20022;-81
2022/12/20 08:00:27;;;;;;;18.73;9.90;;;;;;;;;;6066445;23;20346;-82
2022/12/20 08:03:17;;;;;;;22.30;10.55;;;;;;;;;;6067824;23;20017;-81
2022/12/20 08:05:45;;;;;;;18.45;9.93;;;;;;;;;;6065392;23;20021;-81
2022/12/20 08:08:10;;;;;;;21.33;10.32;;;;;;;;;;6067327;23;20354;-82
2022/12/20 08:10:37;;;;;;;21.52;10.60;;;;;;;;;;6066927;23;20014;-82
2022/12/20 08:13:04;;;;;;;21.73;10.38;;;;;;;;;;6092444;23;20462;-82
2022/12/20 08:15:29;;;;;;;20.73;10.18;;;;;;;;;;6090433;23;20021;-82
2022/12/20 08:17:55;;;;;;;19.60;9.98;;;;;;;;;;6067978;23;20054;-83
2022/12/20 08:20:20;;;;;;;22.73;10.38;;;;;;;;;;6065979;23;20061;-83
2022/12/20 08:22:46;;;;;;;18.50;10.10;;;;;;;;;;6090879;23;20022;-83
2022/12/20 08:25:11;;;;;;;23.33;11.40;;;;;;;;;;6065588;23;20069;-83
2022/12/20 08:27:40;;;;;;;22.55;11.80;;;;;;;;;;6066618;23;20026;-83
2022/12/20 08:30:07;;;;;;;22.40;11.13;;;;;;;;;;6068379;23;20151;-82
2022/12/20 08:32:33;;;;;;;;;;;;;;;;;;6066913;23;20014;-82
2022/12/20 08:34:58;;;;;;;19.90;9.60;;;;;;;;;;6090784;23;20221;-83
2022/12/20 08:37:24;;;;;;;21.17;10.88;;;;;;;;;;6065608;23;20470;-84
2022/12/20 08:39:49;;;;;;;22.63;10.68;;;;;;;;;;6090755;23;20025;-84
2022/12/20 08:42:14;;;;;;;22.10;10.18;;;;;;;;;;6066811;23;20371;-82
2022/12/20 08:44:40;;;;;;;20.92;11.43;;;;;;;;;;6091431;23;20052;-83
2022/12/20 08:47:05;;;;;;;24.73;11.80;;;;;;;;;;6117246;23;20073;-83
2022/12/20 08:49:31;;;;;;;20.10;10.45;;;;;;;;;;6091524;23;20018;-83
2022/12/20 08:51:56;;;;;;;24.75;11.65;;;;;;;;;;6090366;23;20021;-84
2022/12/20 08:54:22;;;;;;;25.48;10.75;;;;;;;;;;6066859;23;20020;-84
2022/12/20 08:56:47;;;;;;;21.80;11.98;;;;;;;;;;6065925;23;20014;-83
2022/12/20 08:59:13;;;;;;;21.48;10.65;;;;;;;;;;6067154;23;20013;-83
2022/12/20 09:01:38;;;;;;;23.42;11.38;;;;;;;;;;6065735;23;20018;-83
2022/12/20 09:04:03;;;;;;;23.60;11.13;;;;;;;;;;6067689;23;20151;-84
2022/12/20 09:06:30;;;;;;;20.65;10.85;;;;;;;;;;6052461;23;20009;-82
2022/12/20 09:08:55;;;;;;;22.17;11.05;;;;;;;;;;6073811;23;20784;-84
2022/12/20 09:11:26;;;;;;;22.27;11.10;;;;;;;;;;6046526;23;20096;-83
2022/12/20 09:13:54;;;;;;;21.40;10.23;;;;;;;;;;6066389;23;20034;-82
2022/12/20 09:16:22;;;;;;;22.17;11.15;;;;;;;;;;6090452;23;20021;-82
2022/12/20 09:18:50;;;;;;;24.45;11.70;;;;;;;;;;6067451;23;20022;-82
2022/12/20 09:21:16;;;;;;;18.25;10.15;;;;;;;;;;6066974;23;20092;-82
2022/12/20 09:23:41;;;;;;;26.23;11.38;;;;;;;;;;6090927;23;20038;-81
2022/12/20 09:26:10;;;;;;;20.75;10.13;;;;;;;;;;6065926;23;20499;-82
2022/12/20 09:28:36;;;;;;;21.90;10.93;;;;;;;;;;6068460;23;20443;-82
2022/12/20 09:31:22;;;;;;;20.60;10.50;;;;;;;;;;6066559;23;20102;-81
2022/12/20 09:33:48;;;;;;;21.30;10.80;;;;;;;;;;6066675;23;20028;-82
2022/12/20 09:36:16;;;;;;;20.58;10.07;;;;;;;;;;6067446;23;20339;-81
2022/12/20 09:38:42;;;;;;;17.10;10.25;;;;;;;;;;6068893;23;20018;-82
2022/12/20 09:41:33;;;;;;;20.17;10.40;;;;;;;;;;6067471;23;20093;-82
2022/12/20 09:44:05;;;;;;;19.00;10.30;;;;;;;;;;6092970;23;20014;-82
2022/12/20 09:46:30;;;;;;;21.58;9.98;;;;;;;;;;6068169;23;20021;-83
2022/12/20 09:48:56;;;;;;;18.15;9.57;;;;;;;;;;6068645;23;20025;-82
2022/12/20 09:52:09;;;;;;;18.75;9.32;;;;;;;;;;6067728;23;20010;-82
2022/12/20 09:54:55;;;;;;;19.02;9.73;;;;;;;;;;6026699;23;20431;-81
2022/12/20 09:57:20;;;;;;;19.75;9.38;;;;;;;;;;6116186;23;20071;-82
2022/12/20 09:59:45;;;;;;;15.68;8.50;;;;;;;;;;6118038;23;20025;-83
2022/12/20 10:02:12;;;;;;;19.25;9.38;;;;;;;;;;6067751;23;20453;-82
2022/12/20 10:04:38;;;;;;;17.53;8.47;;;;;;;;;;6068337;23;20049;-81
2022/12/20 10:07:10;;;;;;;16.58;8.85;;;;;;;;;;6068036;23;20484;-81
2022/12/20 10:09:38;;;;;;;18.83;9.10;;;;;;;;;;6079164;23;20010;-82
2022/12/20 10:12:26;;;;;;;14.38;8.07;;;;;;;;;;6116488;23;20084;-82
2022/12/20 10:15:17;;;;;;;15.35;8.02;;;;;;;;;;6115516;23;20025;-82
2022/12/20 10:17:45;;;;;;;13.93;8.15;;;;;;;;;;6092037;23;20049;-82
2022/12/20 10:20:23;;;;;;;16.73;8.63;;;;;;;;;;6090755;23;20446;-82
2022/12/20 10:22:52;;;;;;;14.90;8.10;;;;;;;;;;6091941;23;20022;-83
2022/12/20 10:25:24;;;;;;;14.75;8.52;;;;;;;;;;6067339;23;20016;-82
2022/12/20 10:27:53;;;;;;;14.93;7.95;;;;;;;;;;6069517;23;20030;-81
2022/12/20 10:30:20;;;;;;;17.05;8.80;;;;;;;;;;6068011;23;20312;-80
2022/12/20 10:32:48;;;;;;;16.90;8.38;;;;;;;;;;6068463;23;20505;-82
2022/12/20 10:35:13;;;;;;;14.80;8.52;;;;;;;;;;6092168;23;20093;-81
2022/12/20 10:37:57;;;;;;;15.20;8.68;;;;;;;;;;6090956;23;20049;-81
2022/12/20 10:40:33;;;;;;;14.40;7.63;;;;;;;;;;6091078;23;20018;-81
2022/12/20 10:43:00;;;;;;;14.32;8.20;;;;;;;;;;6067678;23;20014;-82
2022/12/20 10:45:31;;;;;;;13.68;8.07;;;;;;;;;;6090914;23;20012;-82
2022/12/20 10:47:59;;;;;;;13.90;7.88;;;;;;;;;;6068443;23;20037;-81
2022/12/20 10:50:24;;;;;;;15.20;7.75;;;;;;;;;;6091551;23;20141;-82
2022/12/20 10:53:23;;;;;;;14.38;7.53;;;;;;;;;;6092455;23;20029;-82
2022/12/20 10:55:50;;;;;;;15.05;8.45;;;;;;;;;;6044213;23;20746;-81
2022/12/20 10:58:21;;;;;;;15.60;7.85;;;;;;;;;;6092449;23;20438;-80
2022/12/20 11:00:48;;;;;;;12.98;6.90;;;;;;;;;;6067172;23;20064;-81
2022/12/20 11:03:19;;;;;;;13.05;6.85;;;;;;;;;;6091558;23;20010;-81
2022/12/20 11:06:02;;;;;;;12.30;6.60;;;;;;;;;;6091212;23;20729;-79
2022/12/20 11:08:29;;;;;;;11.45;6.57;;;;;;;;;;6068183;23;20108;-80
2022/12/20 11:11:24;;;;;;;12.55;7.13;;;;;;;;;;6067063;23;20022;-79
2022/12/20 11:13:51;;;;;;;12.10;6.65;;;;;;;;;;6015396;23;20074;-79
2022/12/20 11:16:22;;;;;;;14.80;7.40;;;;;;;;;;6066969;23;20029;-80
2022/12/20 11:18:53;;;;;;;11.60;6.88;;;;;;;;;;6118172;23;20022;-79
2022/12/20 11:21:36;;;;;;;13.88;6.93;;;;;;;;;;6090859;23;20050;-80
2022/12/20 11:24:41;;;;;;;12.75;7.07;;;;;;;;;;6067891;23;20018;-80
2022/12/20 11:27:19;;;;;;;12.52;6.60;;;;;;;;;;6046474;23;21107;-80
2022/12/20 11:30:08;;;;;;;11.68;6.25;;;;;;;;;;6068084;23;20360;-81
2022/12/20 11:33:03;;;;;;;12.48;6.43;;;;;;;;;;6067479;23;20010;-81
2022/12/20 11:35:32;;;;;;;14.05;7.07;;;;;;;;;;6067612;23;20026;-79
2022/12/20 11:38:16;;;;;;;11.25;6.25;;;;;;;;;;6068083;23;20018;-80
2022/12/20 11:41:03;;;;;;;12.18;7.45;;;;;;;;;;6091099;23;20044;-80
2022/12/20 11:43:34;;;;;;;14.88;7.45;;;;;;;;;;6091542;23;20010;-79
2022/12/20 11:46:15;;;;;;;15.93;7.43;;;;;;;;;;6116847;23;20045;-80
2022/12/20 11:48:59;;;;;;;14.07;6.70;;;;;;;;;;6091650;23;20020;-81
2022/12/20 11:51:42;;;;;;;12.23;6.60;;;;;;;;;;6117076;23;20330;-83
2022/12/20 11:54:08;;;;;;;12.07;6.45;;;;;;;;;;6090283;23;20065;-81
2022/12/20 11:56:39;;;;;;;12.32;6.85;;;;;;;;;;6090890;23;20021;-83
2022/12/20 12:00:01;;;;;;;12.75;6.68;;;;;;;;;;6067183;23;20708;-82
2022/12/20 12:02:38;;;;;;;12.60;5.97;;;;;;;;;;6003029;23;20460;-81
2022/12/20 12:05:06;;;;;;;13.88;6.43;;;;;;;;;;6091307;23;20022;-83
2022/12/20 12:07:35;;;;;;;11.75;5.85;;;;;;;;;;6090313;23;20572;-80
2022/12/20 12:10:11;;;;;;;12.20;6.53;;;;;;;;;;6067248;23;20017;-80
2022/12/20 12:12:44;;;;;;;13.20;6.80;;;;;;;;;;6089393;23;20030;-81
2022/12/20 12:15:39;;;;;;;12.00;6.53;;;;;;;;;;6066106;23;20026;-81
2022/12/20 12:18:15;;;;;;;14.75;7.53;;;;;;;;;;6066774;23;20088;-80
2022/12/20 12:21:17;;;;;;;10.95;5.88;;;;;;;;;;6089235;23;20017;-82
2022/12/20 12:23:43;;;;;;;13.15;6.47;;;;;;;;;;6091347;23;20342;-78
2022/12/20 12:26:19;;;;;;;13.25;6.97;;;;;;;;;;6090850;23;20072;-79
2022/12/20 12:28:48;;;;;;;13.05;6.90;;;;;;;;;;6067421;23;20446;-82
2022/12/20 12:31:18;;;;;;;12.27;6.40;;;;;;;;;;6090484;23;20014;-80
2022/12/20 12:33:54;;;;;;;12.13;7.00;;;;;;;;;;6051749;23;20331;-80
2022/12/20 12:36:39;;;;;;;13.60;6.72;;;;;;;;;;6045410;23;20022;-80
2022/12/20 12:39:26;;;;;;;12.85;6.68;;;;;;;;;;6071866;23;20077;-80
2022/12/20 12:42:22;;;;;;;12.18;6.45;;;;;;;;;;6090418;23;20029;-80
2022/12/20 12:44:52;;;;;;;11.77;6.75;;;;;;;;;;6060145;23;20417;-81
2022/12/20 12:47:22;;;;;;;12.45;6.40;;;;;;;;;;6067293;23;20396;-81
2022/12/20 12:49:49;;;;;;;11.13;5.95;;;;;;;;;;6067266;23;20014;-78
2022/12/20 12:52:45;;;;;;;12.13;6.45;;;;;;;;;;6067015;23;20017;-79
2022/12/20 12:55:42;;;;;;;11.20;6.03;;;;;;;;;;6113335;23;20451;-80
2022/12/20 12:58:23;;;;;;;10.38;5.80;;;;;;;;;;6067102;23;20018;-81
2022/12/20 13:00:59;;;;;;;10.73;5.90;;;;;;;;;;6090801;23;20065;-79
2022/12/20 13:03:41;;;;;;;12.48;6.35;;;;;;;;;;6091921;23;20018;-80
2022/12/20 13:06:25;;;;;;;10.68;5.88;;;;;;;;;;6052792;23;20100;-81
2022/12/20 13:08:59;;;;;;;11.35;6.25;;;;;;;;;;6091363;23;20033;-81
2022/12/20 13:11:32;;;;;;;13.57;6.47;;;;;;;;;;6092138;23;20018;-81
2022/12/20 13:14:16;;;;;;;14.13;7.05;;;;;;;;;;6093214;23;20115;-78
2022/12/20 13:16:43;;;;;;;11.23;6.13;;;;;;;;;;6118305;23;20029;-79
2022/12/20 13:19:36;;;;;;;12.82;6.43;;;;;;;;;;6093357;23;20514;-80
2022/12/20 13:22:10;;;;;;;11.93;6.60;;;;;;;;;;6068302;23;20021;-80
2022/12/20 13:24:37;;;;;;;13.70;6.90;;;;;;;;;;6119074;23;20406;-79
2022/12/20 13:27:13;;;;;;;12.85;7.43;;;;;;;;;;6068627;23;20018;-79
2022/12/20 13:30:12;;;;;;;11.93;7.10;;;;;;;;;;6093709;23;20022;-79
2022/12/20 13:32:46;;;;;;;13.63;7.40;;;;;;;;;;6116648;23;20046;-79
2022/12/20 13:35:24;;;;;;;11.93;7.00;;;;;;;;;;6092004;23;20018;-79
2022/12/20 13:38:05;;;;;;;;;;;;;;;;;;6093753;23;20513;-82
2022/12/20 13:40:42;;;;;;;14.90;6.60;;;;;;;;;;6069587;23;19913;-79
2022/12/20 13:43:20;;;;;;;;;;;;;;;;;;6093419;23;20092;-79
2022/12/20 13:45:54;;;;;;;12.40;6.00;;;;;;;;;;6117618;23;19917;-80
2022/12/20 13:48:37;;;;;;;12.82;6.72;;;;;;;;;;6068043;23;20089;-79
2022/12/20 13:51:03;;;;;;;12.32;6.75;;;;;;;;;;6092495;23;20021;-79
2022/12/20 13:53:30;;;;;;;11.45;6.40;;;;;;;;;;6069006;23;20398;-79
2022/12/20 13:55:55;;;;;;;12.02;6.15;;;;;;;;;;6068428;23;20080;-79
2022/12/20 13:58:24;;;;;;;14.82;7.35;;;;;;;;;;6069195;23;20022;-80
2022/12/20 14:00:51;;;;;;;12.48;6.05;;;;;;;;;;6066931;23;20025;-81
2022/12/20 14:03:21;;;;;;;10.95;6.30;;;;;;;;;;6068610;23;20405;-81
2022/12/20 14:05:47;;;;;;;11.40;6.38;;;;;;;;;;6067553;23;20128;-80
2022/12/20 14:08:15;;;;;;;12.82;6.72;;;;;;;;;;6068145;23;20022;-80
2022/12/20 14:10:40;;;;;;;14.50;7.05;;;;;;;;;;6092566;23;20026;-79
2022/12/20 14:13:20;;;;;;;11.50;6.13;;;;;;;;;;6093146;23;20018;-80
2022/12/20 14:15:46;;;;;;;12.43;6.65;;;;;;;;;;6117843;23;20025;-80
2022/12/20 14:18:20;;;;;;;13.77;6.70;;;;;;;;;;6068493;23;20032;-81
2022/12/20 14:20:54;;;;;;;14.20;7.30;;;;;;;;;;6091675;23;20365;-80
2022/12/20 14:23:23;;;;;;;12.70;6.53;;;;;;;;;;6118076;23;20018;-79
2022/12/20 14:25:54;;;;;;;12.68;6.43;;;;;;;;;;6068329;23;20080;-79
2022/12/20 14:28:37;;;;;;;12.27;6.38;;;;;;;;;;6068481;23;20412;-80
2022/12/20 14:31:05;;;;;;;11.88;6.18;;;;;;;;;;6067785;23;20021;-79
2022/12/20 14:33:30;;;;;;;11.95;6.80;;;;;;;;;;6049663;23;20018;-79
2022/12/20 14:35:56;;;;;;;13.90;7.28;;;;;;;;;;6071727;23;20059;-80
2022/12/20 14:38:29;;;;;;;11.82;6.65;;;;;;;;;;6067230;23;20021;-80
2022/12/20 14:40:55;;;;;;;13.63;7.07;;;;;;;;;;6066305;23;20076;-80
2022/12/20 14:43:31;;;;;;;14.85;7.18;;;;;;;;;;6067369;23;20014;-79
2022/12/20 14:46:26;;;;;;;14.15;6.95;;;;;;;;;;6089919;23;20021;-81
2022/12/20 14:49:21;;;;;;;15.60;6.78;;;;;;;;;;6073798;23;20033;-80
2022/12/20 14:51:47;;;;;;;12.25;6.85;;;;;;;;;;6067687;23;20088;-80
2022/12/20 14:54:18;;;;;;;13.25;7.05;;;;;;;;;;6092542;23;20024;-79
2022/12/20 14:56:46;;;;;;;14.07;7.25;;;;;;;;;;6067273;23;20350;-80